Time;durP1;ratioP1;P1;durP2;ratioP2;P2;SDS_P1;SDS_P2;PMS_P1;PMS_P2;Temp;Humidity;BMP_temperature;BMP_pressure;BME280_temperature;BME280_humidity;BME280_pressure;Samples;Min_cycle;Max_cycle;Signal;HPM_P1;HPM_P2
2022/10/01 00:01:48;;;;;;;;;;;;;;;16.93;77.24;100300.25;5282259;33;34935;-83
2022/10/01 00:04:50;;;;;;;;;;;;;;;17.66;73.82;100307.66;5282368;33;33525;-83
2022/10/01 00:07:52;;;;;;;;;;;;;;;17.05;76.20;100295.91;5274600;33;33232;-84
2022/10/01 00:10:54;;;;;;;;;;;;;;;16.00;81.66;100284.22;5279514;33;33832;-83
2022/10/01 00:13:56;;;;;;;;;;;;;;;16.11;82.02;100285.25;5282660;33;33781;-83
2022/10/01 00:16:58;;;;;;;;;;;;;;;17.44;76.16;100304.78;5270207;33;35436;-75
2022/10/01 00:20:00;;;;;;;;;;;;;;;17.55;74.14;100381.97;5282314;33;34216;-74
2022/10/01 00:23:02;;;;;;;;;;;;;;;15.24;83.90;100408.88;5269065;33;33514;-83
2022/10/01 00:26:24;;;;;;;;;;;;;;;14.59;91.31;100306.75;5280406;33;33877;-83
2022/10/01 00:29:26;;;;;;;;;;;;;;;15.36;86.20;100259.88;5279863;33;34330;-82
2022/10/01 00:32:31;;;;;;;;;;;;;;;16.55;79.50;100305.41;5291238;33;33294;-74
2022/10/01 00:35:33;;;;;;;;;;;;;;;15.35;86.79;100311.16;5285516;33;34506;-74
2022/10/01 00:38:35;;;;;;;;;;;;;;;15.01;87.60;100302.56;5286238;33;34095;-75
2022/10/01 00:41:37;;;;;;;;;;;;;;;15.17;89.62;100300.69;5299036;33;34386;-80
2022/10/01 00:44:39;;;;;;;;;;;;;;;16.08;83.78;100293.38;5269529;33;33781;-74
2022/10/01 00:47:43;;;;;;;;;;;;;;;16.06;82.28;100292.62;5285166;33;36191;-75
2022/10/01 00:50:47;;;;;;;;;;;;;;;15.51;84.99;100279.28;5278986;33;44590;-83
2022/10/01 00:53:50;;;;;;;;;;;;;;;15.68;84.86;100287.09;5275945;33;33910;-74
2022/10/01 00:56:52;;;;;;;;;;;;;;;16.33;82.22;100289.16;5277605;33;33584;-83
2022/10/01 00:59:55;;;;;;;;;;;;;;;16.83;77.44;100283.25;5267082;33;34008;-79
2022/10/01 01:02:57;;;;;;;;;;;;;;;15.97;81.81;100279.94;5297515;33;34566;-83
2022/10/01 01:05:59;;;;;;;;;;;;;;;15.40;84.67;100290.53;5280877;33;34443;-74
2022/10/01 01:09:02;;;;;;;;;;;;;;;15.61;85.39;100293.66;5277900;33;33098;-82
2022/10/01 01:12:06;;;;;;;;;;;;;;;15.96;83.85;100294.16;5278510;33;33926;-74
2022/10/01 01:15:11;;;;;;;;;;;;;;;15.90;83.26;100292.72;5285166;33;33642;-73
2022/10/01 01:18:17;;;;;;;;;;;;;;;15.65;85.92;100282.84;5293196;33;44891;-83
2022/10/01 01:21:20;;;;;;;;;;;;;;;15.93;83.26;100275.81;5281866;33;34618;-83
2022/10/01 01:24:37;;;;;;;;;;;;;;;16.14;83.07;100290.34;5296268;33;34369;-74
2022/10/01 01:27:48;;;;;;;;;;;;;;;15.91;83.77;100288.31;5265116;33;33468;-74
2022/10/01 01:30:50;;;;;;;;;;;;;;;17.08;77.92;100295.72;5291543;33;45167;-74
2022/10/01 01:33:52;;;;;;;;;;;;;;;16.22;81.62;100306.59;5275234;33;33227;-83
2022/10/01 01:36:57;;;;;;;;;;;;;;;16.05;81.96;100306.00;5270262;33;34513;-73
2022/10/01 01:39:59;;;;;;;;;;;;;;;15.56;85.58;100309.84;5271003;33;33719;-74
2022/10/01 01:43:04;;;;;;;;;;;;;;;15.27;89.30;100305.47;5267305;33;33398;-74
2022/10/01 01:46:06;;;;;;;;;;;;;;;15.31;90.30;100299.88;5282724;33;33863;-74
2022/10/01 01:49:08;;;;;;;;;;;;;;;15.59;85.58;100308.81;5267109;33;34587;-83
2022/10/01 01:52:14;;;;;;;;;;;;;;;15.61;83.03;100302.47;5274679;33;33217;-84
2022/10/01 01:55:17;;;;;;;;;;;;;;;16.15;82.59;100297.34;5276948;33;45380;-75
2022/10/01 01:58:19;;;;;;;;;;;;;;;15.20;86.78;100293.50;5281926;33;33328;-74
2022/10/01 02:01:33;;;;;;;;;;;;;;;15.77;84.65;100283.00;5299500;33;33777;-74
2022/10/01 02:04:38;;;;;;;;;;;;;;;15.80;83.21;100281.03;5283195;33;34019;-74
2022/10/01 02:07:41;;;;;;;;;;;;;;;15.95;82.97;100289.81;5296882;33;33251;-76
2022/10/01 02:10:43;;;;;;;;;;;;;;;16.11;82.51;100289.72;5263262;33;43076;-83
2022/10/01 02:13:47;;;;;;;;;;;;;;;15.29;86.41;100277.94;5283372;33;33226;-83
2022/10/01 02:16:50;;;;;;;;;;;;;;;15.54;86.70;100268.50;5285664;33;34055;-75
2022/10/01 02:20:00;;;;;;;;;;;;;;;16.36;81.40;100263.31;5269270;33;33812;-84
2022/10/01 02:23:04;;;;;;;;;;;;;;;16.43;81.01;100269.91;5284951;33;34203;-76
2022/10/01 02:26:07;;;;;;;;;;;;;;;16.69;78.34;100270.84;5280387;33;33732;-81
2022/10/01 02:29:10;;;;;;;;;;;;;;;15.54;84.33;100284.41;5264560;33;33213;-84
2022/10/01 02:32:12;;;;;;;;;;;;;;;16.43;80.46;100283.19;5275919;33;43254;-75
2022/10/01 02:35:15;;;;;;;;;;;;;;;16.90;76.89;100297.81;5268610;33;34298;-74
2022/10/01 02:38:16;;;;;;;;;;;;;;;16.33;80.60;100289.16;5285111;33;33862;-74
2022/10/01 02:41:22;;;;;;;;;;;;;;;16.43;77.55;100296.44;5257514;33;33457;-84
2022/10/01 02:44:25;;;;;;;;;;;;;;;15.33;83.87;100289.22;5284960;33;33797;-80
2022/10/01 02:47:38;;;;;;;;;;;;;;;15.92;82.97;100290.00;5264296;33;34734;-73
2022/10/01 02:50:41;;;;;;;;;;;;;;;15.40;84.81;100293.19;5259183;33;34336;-74
2022/10/01 02:53:46;;;;;;;;;;;;;;;15.39;85.21;100286.16;5282657;33;45084;-83
2022/10/01 03:00:10;;;;;;;;;;;;;;;15.87;83.35;100289.44;5286395;33;33821;-83
2022/10/01 03:03:12;;;;;;;;;;;;;;;16.00;82.18;100290.38;5281716;33;44825;-82
2022/10/01 03:06:13;;;;;;;;;;;;;;;15.75;83.27;100292.84;5293588;33;34418;-75
2022/10/01 03:09:15;;;;;;;;;;;;;;;16.08;82.20;100303.12;5270105;33;34490;-83
2022/10/01 03:12:17;;;;;;;;;;;;;;;16.45;81.37;100301.66;5280838;33;33944;-84
2022/10/01 03:15:19;;;;;;;;;;;;;;;16.73;77.15;100295.41;5284706;33;33643;-85
2022/10/01 03:18:21;;;;;;;;;;;;;;;15.53;83.71;100290.66;5257235;33;34245;-74
2022/10/01 03:21:23;;;;;;;;;;;;;;;14.94;87.53;100272.13;5297310;33;33915;-74
2022/10/01 03:24:25;;;;;;;;;;;;;;;16.84;77.72;100278.78;5281126;33;34074;-84
2022/10/01 03:27:27;;;;;;;;;;;;;;;15.48;83.88;100279.47;5289142;33;33266;-84
2022/10/01 03:30:29;;;;;;;;;;;;;;;14.68;90.42;100283.34;5288736;33;34167;-74
2022/10/01 03:33:31;;;;;;;;;;;;;;;16.28;80.49;100289.47;5282902;33;33667;-84
2022/10/01 03:36:33;;;;;;;;;;;;;;;14.84;88.13;100300.03;5297579;33;33985;-84
2022/10/01 03:39:35;;;;;;;;;;;;;;;16.14;84.24;100305.41;5268688;33;34118;-85
2022/10/01 03:42:36;;;;;;;;;;;;;;;16.91;77.66;100319.88;5298497;33;34332;-74
2022/10/01 03:45:38;;;;;;;;;;;;;;;16.95;77.68;100340.81;5282429;33;33652;-74
2022/10/01 03:48:40;;;;;;;;;;;;;;;16.21;80.88;100333.22;5277636;33;34811;-75
2022/10/01 03:51:44;;;;;;;;;;;;;;;15.92;83.76;100337.72;5274966;33;44541;-82
2022/10/01 03:54:45;;;;;;;;;;;;;;;16.47;82.02;100334.22;5281937;33;34034;-83
2022/10/01 03:57:47;;;;;;;;;;;;;;;15.91;85.55;100326.28;5295467;33;33926;-81
2022/10/01 04:00:49;;;;;;;;;;;;;;;16.13;83.18;100319.63;5280234;33;34011;-75
2022/10/01 04:03:51;;;;;;;;;;;;;;;15.66;86.46;100305.72;5283420;33;33996;-74
2022/10/01 04:06:55;;;;;;;;;;;;;;;16.45;82.45;100299.00;5268093;33;33902;-74
2022/10/01 04:09:57;;;;;;;;;;;;;;;16.30;81.74;100284.06;5252747;33;34266;-83
2022/10/01 04:13:00;;;;;;;;;;;;;;;16.36;82.68;100281.00;5291600;33;33919;-74
2022/10/01 04:16:02;;;;;;;;;;;;;;;16.75;79.69;100275.78;5281273;33;34497;-74
2022/10/01 04:19:04;;;;;;;;;;;;;;;17.03;78.37;100284.56;5296050;33;33564;-75
2022/10/01 04:22:06;;;;;;;;;;;;;;;17.29;77.05;100285.44;5282760;33;34089;-83
2022/10/01 04:25:09;;;;;;;;;;;;;;;17.19;75.99;100290.50;5298684;33;33875;-83
2022/10/01 04:28:12;;;;;;;;;;;;;;;17.00;76.93;100280.31;5256708;33;44214;-74
2022/10/01 04:31:23;;;;;;;;;;;;;;;16.10;81.68;100280.91;5273416;33;33932;-73
2022/10/01 04:34:51;;;;;;;;;;;;;;;16.33;81.53;100278.56;5277901;33;33353;-83
2022/10/01 04:37:47;;;;;;;;;;;;;;;16.68;80.10;100285.09;5282059;33;45059;-81
2022/10/01 04:40:49;;;;;;;;;;;;;;;16.73;78.80;100290.09;5272153;33;33652;-83
2022/10/01 04:43:51;;;;;;;;;;;;;;;16.88;78.92;100286.44;5279847;33;32672;-82
2022/10/01 04:46:52;;;;;;;;;;;;;;;17.45;75.39;100288.75;5294113;33;34171;-84
2022/10/01 04:49:55;;;;;;;;;;;;;;;16.59;78.42;100280.38;5287341;33;34495;-82
2022/10/01 04:52:56;;;;;;;;;;;;;;;15.66;84.56;100276.59;5256025;33;34314;-82
2022/10/01 04:55:58;;;;;;;;;;;;;;;16.61;80.18;100291.72;5295485;33;33248;-84
2022/10/01 04:59:00;;;;;;;;;;;;;;;16.64;80.30;100288.88;5282582;33;33657;-74
2022/10/01 05:02:02;;;;;;;;;;;;;;;16.49;81.33;100290.75;5297772;33;34088;-83
2022/10/01 05:05:05;;;;;;;;;;;;;;;16.79;80.29;100290.53;5269354;33;33892;-74
2022/10/01 05:08:07;;;;;;;;;;;;;;;16.37;81.76;100290.69;5283201;33;34379;-74
2022/10/01 05:11:08;;;;;;;;;;;;;;;16.57;81.53;100292.03;5278527;33;34175;-75
2022/10/01 05:14:10;;;;;;;;;;;;;;;16.04;82.87;100299.00;5280901;33;33717;-74
2022/10/01 05:17:17;;;;;;;;;;;;;;;17.14;78.26;100300.63;5271470;33;45107;-74
2022/10/01 05:20:20;;;;;;;;;;;;;;;17.11;78.41;100308.78;5281254;33;34045;-75
2022/10/01 05:23:22;;;;;;;;;;;;;;;17.13;77.58;100325.47;5283229;33;34520;-84
2022/10/01 05:26:24;;;;;;;;;;;;;;;17.51;75.14;100345.91;5279928;33;33852;-84
2022/10/01 05:29:26;;;;;;;;;;;;;;;16.98;76.92;100345.06;5284087;33;34009;-75
2022/10/01 05:32:27;;;;;;;;;;;;;;;16.61;80.78;100335.97;5290864;33;34643;-74
2022/10/01 05:35:30;;;;;;;;;;;;;;;16.42;82.14;100331.00;5280259;33;34364;-74
2022/10/01 05:38:36;;;;;;;;;;;;;;;16.11;83.76;100327.66;5282314;33;33663;-83
2022/10/01 05:41:39;;;;;;;;;;;;;;;16.93;80.59;100336.56;5280243;33;34065;-83
2022/10/01 05:44:45;;;;;;;;;;;;;;;16.73;81.56;100325.44;5296729;33;42260;-83
2022/10/01 05:47:48;;;;;;;;;;;;;;;16.59;82.05;100319.31;5288403;33;33886;-84
2022/10/01 05:50:50;;;;;;;;;;;;;;;16.47;81.45;100308.53;5284815;33;34402;-74
2022/10/01 05:53:53;;;;;;;;;;;;;;;15.91;85.71;100304.22;5281149;33;33445;-74
2022/10/01 05:56:55;;;;;;;;;;;;;;;16.89;81.41;100311.19;5281964;33;33941;-74
2022/10/01 05:59:57;;;;;;;;;;;;;;;16.34;84.28;100304.13;5295705;33;34443;-74
2022/10/01 06:03:00;;;;;;;;;;;;;;;17.17;79.90;100308.37;5279097;33;34443;-73
2022/10/01 06:06:04;;;;;;;;;;;;;;;17.78;75.83;100309.50;5296413;33;33697;-85
2022/10/01 06:09:06;;;;;;;;;;;;;;;16.40;82.24;100299.28;5263815;33;33673;-83
2022/10/01 06:12:08;;;;;;;;;;;;;;;16.55;81.71;100296.56;5278813;33;34437;-84
2022/10/01 06:15:11;;;;;;;;;;;;;;;16.60;82.42;100297.97;5282030;33;34142;-83
2022/10/01 06:18:13;;;;;;;;;;;;;;;16.53;82.84;100280.75;5267941;33;44711;-75
2022/10/01 06:21:15;;;;;;;;;;;;;;;16.75;81.80;100281.09;5294548;33;34225;-74
2022/10/01 06:24:17;;;;;;;;;;;;;;;16.60;83.16;100282.06;5280979;33;33301;-83
2022/10/01 06:27:19;;;;;;;;;;;;;;;17.08;80.21;100266.50;5292081;33;33163;-75
2022/10/01 06:30:21;;;;;;;;;;;;;;;15.97;85.95;100266.69;5279304;33;33375;-75
2022/10/01 06:33:23;;;;;;;;;;;;;;;16.39;85.30;100249.84;5267227;33;33961;-83
2022/10/01 06:36:24;;;;;;;;;;;;;;;16.82;84.77;100262.12;5295219;33;33625;-85
2022/10/01 06:39:26;;;;;;;;;;;;;;;17.51;77.19;100282.13;5280845;33;34649;-75
2022/10/01 06:42:28;;;;;;;;;;;;;;;17.13;79.66;100304.22;5293958;33;34084;-83
2022/10/01 06:45:30;;;;;;;;;;;;;;;16.90;80.42;100311.06;5279903;33;33682;-74
2022/10/01 06:48:34;;;;;;;;;;;;;;;16.76;82.90;100298.72;5295842;33;35522;-84
2022/10/01 06:54:58;;;;;;;;;;;;;;;17.08;80.49;100287.75;5283624;33;33893;-75
2022/10/01 06:58:01;;;;;;;;;;;;;;;16.98;81.21;100286.66;5299058;33;34127;-75
2022/10/01 07:01:03;;;;;;;;;;;;;;;17.36;80.13;100291.19;5283974;33;34605;-74
2022/10/01 07:04:05;;;;;;;;;;;;;;;17.86;76.34;100285.03;5295111;33;33699;-83
2022/10/01 07:07:07;;;;;;;;;;;;;;;17.73;77.83;100286.84;5256975;33;33339;-82
2022/10/01 07:10:10;;;;;;;;;;;;;;;17.20;79.45;100292.25;5265675;33;34081;-74
2022/10/01 07:13:12;;;;;;;;;;;;;;;17.16;80.15;100290.72;5265995;33;45111;-83
2022/10/01 07:16:14;;;;;;;;;;;;;;;17.42;79.45;100299.56;5268128;33;33821;-74
2022/10/01 07:19:16;;;;;;;;;;;;;;;18.18;75.28;100284.53;5297908;33;33796;-75
2022/10/01 07:22:18;;;;;;;;;;;;;;;17.37;78.71;100288.41;5270495;33;34000;-75
2022/10/01 07:25:20;;;;;;;;;;;;;;;17.83;76.97;100275.44;5295105;33;34019;-82
2022/10/01 07:28:24;;;;;;;;;;;;;;;17.44;78.82;100283.53;5285403;33;33865;-74
2022/10/01 07:31:26;;;;;;;;;;;;;;;17.68;78.66;100267.69;5287252;33;34691;-81
2022/10/01 07:34:31;;;;;;;;;;;;;;;18.03;76.91;100263.41;5291500;33;34055;-75
2022/10/01 07:37:33;;;;;;;;;;;;;;;18.57;74.51;100262.97;5268150;33;33274;-84
2022/10/01 07:40:35;;;;;;;;;;;;;;;18.48;74.57;100246.84;5299193;33;33961;-82
2022/10/01 07:43:38;;;;;;;;;;;;;;;18.05;75.90;100244.69;5281465;33;34256;-76
2022/10/01 07:46:40;;;;;;;;;;;;;;;18.81;73.21;100246.19;5297401;33;32877;-83
2022/10/01 07:49:42;;;;;;;;;;;;;;;19.05;71.40;100243.44;5280805;33;47581;-83
2022/10/01 07:52:44;;;;;;;;;;;;;;;19.42;69.36;100236.13;5282802;33;34498;-83
2022/10/01 07:55:46;;;;;;;;;;;;;;;19.32;69.62;100251.13;5294816;33;34107;-74
2022/10/01 07:58:47;;;;;;;;;;;;;;;19.02;71.10;100270.34;5280272;33;35594;-82
2022/10/01 08:01:50;;;;;;;;;;;;;;;18.68;73.05;100256.91;5298515;33;33840;-83
2022/10/01 08:08:13;;;;;;;;;;;;;;;18.76;72.36;100245.69;5284320;33;46395;-83
2022/10/01 08:11:16;;;;;;;;;;;;;;;18.80;73.95;100258.63;5274268;33;34476;-75
2022/10/01 08:14:18;;;;;;;;;;;;;;;19.41;70.98;100253.94;5257068;33;34351;-75
2022/10/01 08:17:20;;;;;;;;;;;;;;;19.38;70.28;100254.16;5298427;33;33832;-74
2022/10/01 08:20:27;;;;;;;;;;;;;;;18.23;75.36;100242.50;5277595;33;35512;-84
2022/10/01 08:23:32;;;;;;;;;;;;;;;18.83;74.71;100244.25;5294959;33;33646;-83
2022/10/01 08:26:34;;;;;;;;;;;;;;;19.33;71.79;100252.84;5266223;33;34702;-75
2022/10/01 08:29:36;;;;;;;;;;;;;;;18.43;75.45;100257.00;5298405;32;33341;-85
2022/10/01 08:32:38;;;;;;;;;;;;;;;18.99;73.87;100259.91;5292254;33;33826;-75
2022/10/01 08:35:40;;;;;;;;;;;;;;;19.09;72.88;100255.56;5280837;33;33944;-83
2022/10/01 08:38:45;;;;;;;;;;;;;;;19.37;71.24;100252.47;5272320;33;45023;-83
2022/10/01 08:41:50;;;;;;;;;;;;;;;19.31;71.45;100236.94;5268943;33;33848;-75
2022/10/01 08:44:52;;;;;;;;;;;;;;;19.03;73.32;100222.25;5297086;33;34259;-83
2022/10/01 08:47:57;;;;;;;;;;;;;;;19.37;71.57;100216.97;5277582;33;35402;-75
2022/10/01 08:51:03;;;;;;;;;;;;;;;19.70;69.98;100210.81;5284875;33;34072;-74
2022/10/01 08:54:25;;;;;;;;;;;;;;;19.48;70.46;100207.16;5282602;33;34001;-75
2022/10/01 08:57:28;;;;;;;;;;;;;;;18.14;77.36;100209.41;5280732;33;33920;-83
2022/10/01 09:00:31;;;;;;;;;;;;;;;18.27;77.66;100206.72;5283538;33;33291;-83
2022/10/01 09:03:33;;;;;;;;;;;;;;;18.46;78.26;100211.50;5279305;33;32223;-75
2022/10/01 09:06:36;;;;;;;;;;;;;;;18.64;76.17;100208.31;5293545;33;34174;-84
2022/10/01 09:09:43;;;;;;;;;;;;;;;19.61;70.89;100201.75;5277424;33;33232;-84
2022/10/01 09:12:45;;;;;;;;;;;;;;;19.40;71.94;100198.94;5271100;33;44938;-83
2022/10/01 09:15:49;;;;;;;;;;;;;;;18.49;76.62;100187.34;5294423;33;33925;-75
2022/10/01 09:19:01;;;;;;;;;;;;;;;18.68;77.50;100203.66;5266239;33;33678;-84
2022/10/01 09:22:06;;;;;;;;;;;;;;;19.30;74.30;100203.28;5283570;33;34078;-85
2022/10/01 09:25:08;;;;;;;;;;;;;;;19.33;72.98;100200.41;5265781;33;34463;-75
2022/10/01 09:28:14;;;;;;;;;;;;;;;19.71;71.24;100201.88;5281456;33;35437;-84
2022/10/01 09:31:16;;;;;;;;;;;;;;;18.54;75.72;100206.47;5269854;33;44794;-75
2022/10/01 09:34:24;;;;;;;;;;;;;;;19.40;73.89;100200.75;5280351;33;33264;-74
2022/10/01 09:37:32;;;;;;;;;;;;;;;18.86;76.61;100199.56;5284294;33;34524;-75
2022/10/01 09:40:46;;;;;;;;;;;;;;;20.06;71.86;100188.34;5267167;33;33886;-74
2022/10/01 09:43:48;;;;;;;;;;;;;;;20.01;69.53;100183.37;5287830;33;45945;-73
2022/10/01 09:46:50;;;;;;;;;;;;;;;20.63;68.12;100183.69;5290608;33;34834;-74
2022/10/01 09:49:52;;;;;;;;;;;;;;;20.79;66.57;100192.06;5266906;33;35849;-75
2022/10/01 09:52:54;;;;;;;;;;;;;;;20.16;69.23;100189.28;5297254;33;35008;-84
2022/10/01 09:55:57;;;;;;;;;;;;;;;20.24;69.43;100196.66;5282703;33;32730;-76
2022/10/01 09:59:00;;;;;;;;;;;;;;;19.53;72.81;100174.84;5283550;33;33871;-86
2022/10/01 10:02:03;;;;;;;;;;;;;;;20.24;69.56;100176.16;5267669;33;33844;-85
2022/10/01 10:05:06;;;;;;;;;;;;;;;20.31;69.99;100170.31;5285540;33;34602;-75
2022/10/01 10:08:12;;;;;;;;;;;;;;;21.88;62.74;100159.37;5280722;33;33425;-76
2022/10/01 10:11:20;;;;;;;;;;;;;;;22.14;60.83;100160.59;5256235;33;45340;-75
2022/10/01 10:14:32;;;;;;;;;;;;;;;21.46;62.80;100164.06;5282070;33;33880;-86
2022/10/01 10:17:36;;;;;;;;;;;;;;;21.26;62.74;100155.09;5266174;33;34124;-74
2022/10/01 10:20:39;;;;;;;;;;;;;;;19.92;69.80;100160.13;5294601;33;34237;-84
2022/10/01 10:23:48;;;;;;;;;;;;;;;20.64;67.06;100145.31;5284542;33;33939;-84
2022/10/01 10:26:51;;;;;;;;;;;;;;;20.53;66.67;100148.87;5279563;33;46040;-85
2022/10/01 10:30:00;;;;;;;;;;;;;;;20.79;65.31;100135.97;5271518;33;34593;-84
2022/10/01 10:33:03;;;;;;;;;;;;;;;21.89;61.91;100129.81;5282767;33;33202;-85
2022/10/01 10:36:05;;;;;;;;;;;;;;;21.79;63.60;100133.47;5285012;33;34718;-75
2022/10/01 10:39:14;;;;;;;;;;;;;;;22.97;58.67;100123.44;5282476;33;33861;-75
2022/10/01 10:42:17;;;;;;;;;;;;;;;22.24;60.66;100133.00;5272984;33;45212;-75
2022/10/01 10:45:36;;;;;;;;;;;;;;;22.98;57.03;100114.41;5281522;33;33189;-75
2022/10/01 10:48:43;;;;;;;;;;;;;;;21.92;62.08;100111.81;5270369;33;33835;-77
2022/10/01 10:51:47;;;;;;;;;;;;;;;22.56;59.43;100119.31;5285114;33;46798;-84
2022/10/01 10:54:53;;;;;;;;;;;;;;;21.12;66.46;100105.50;5282887;33;31541;-85
2022/10/01 10:57:54;;;;;;;;;;;;;;;23.02;57.70;100106.94;5281248;33;33969;-83
2022/10/01 11:01:00;;;;;;;;;;;;;;;22.78;59.23;100104.72;5280093;33;34409;-85
2022/10/01 11:04:02;;;;;;;;;;;;;;;22.49;59.99;100102.97;5269800;33;34309;-76
2022/10/01 11:07:04;;;;;;;;;;;;;;;22.30;60.22;100097.63;5286018;33;33889;-76
2022/10/01 11:10:14;;;;;;;;;;;;;;;23.29;56.22;100090.03;5246573;33;33841;-75
2022/10/01 11:13:17;;;;;;;;;;;;;;;22.70;58.64;100098.25;5271822;33;44455;-84
2022/10/01 11:16:28;;;;;;;;;;;;;;;22.60;58.64;100093.91;5283896;33;33906;-84
2022/10/01 11:19:36;;;;;;;;;;;;;;;21.73;61.82;100080.53;5273071;33;34727;-84
2022/10/01 11:22:42;;;;;;;;;;;;;;;20.71;67.99;100066.38;5284379;33;33741;-76
2022/10/01 11:25:48;;;;;;;;;;;;;;;21.37;65.37;100056.09;5264531;33;45218;-84
2022/10/01 11:28:54;;;;;;;;;;;;;;;21.79;62.74;100042.53;5296518;33;34006;-75
2022/10/01 11:32:16;;;;;;;;;;;;;;;22.24;60.44;100031.28;5269545;33;32327;-75
2022/10/01 11:35:21;;;;;;;;;;;;;;;21.61;63.58;100040.53;5285759;33;46832;-84
2022/10/01 11:38:35;;;;;;;;;;;;;;;22.65;59.65;100030.87;5295757;33;33574;-84
2022/10/01 11:41:43;;;;;;;;;;;;;;;22.83;59.76;100019.41;5265597;33;34891;-81
2022/10/01 11:44:47;;;;;;;;;;;;;;;23.07;58.48;100024.28;5296221;33;47215;-84
2022/10/01 11:47:51;;;;;;;;;;;;;;;22.55;59.68;100014.00;5282578;33;34420;-85
2022/10/01 11:50:53;;;;;;;;;;;;;;;22.87;59.85;100008.28;5294533;33;33792;-86
2022/10/01 11:53:57;;;;;;;;;;;;;;;22.00;61.36;100012.94;5263423;33;33930;-75
2022/10/01 12:00:19;;;;;;;;;;;;;;;22.54;60.85;99998.94;5287542;33;45894;-84
2022/10/01 12:03:29;;;;;;;;;;;;;;;22.64;60.96;99994.37;5284171;33;34418;-84
2022/10/01 12:06:37;;;;;;;;;;;;;;;22.43;61.27;99993.75;5289120;33;34219;-84
2022/10/01 12:09:48;;;;;;;;;;;;;;;23.80;56.03;99992.87;5249365;33;33912;-75
2022/10/01 12:13:03;;;;;;;;;;;;;;;23.58;57.25;99983.44;5282878;33;34511;-75
2022/10/01 12:16:18;;;;;;;;;;;;;;;24.88;52.80;99977.31;5295729;33;34194;-76
2022/10/01 12:19:33;;;;;;;;;;;;;;;23.42;57.79;99975.22;5267705;33;44526;-74
2022/10/01 12:22:36;;;;;;;;;;;;;;;23.15;58.79;99979.63;5282558;32;33828;-85
2022/10/01 12:25:56;;;;;;;;;;;;;;;24.06;55.77;99971.44;5269656;33;33861;-76
2022/10/01 12:28:57;;;;;;;;;;;;;;;24.28;54.46;99967.38;5279318;33;34861;-75
2022/10/01 12:32:04;;;;;;;;;;;;;;;23.71;56.44;99959.78;5302880;33;33447;-76
2022/10/01 12:35:17;;;;;;;;;;;;;;;24.00;55.79;99958.66;5295247;32;34359;-74
2022/10/01 12:38:31;;;;;;;;;;;;;;;22.89;58.73;99965.25;5293492;33;46252;-78
2022/10/01 12:41:52;;;;;;;;;;;;;;;23.23;58.15;99963.63;5283888;33;34943;-75
2022/10/01 12:44:59;;;;;;;;;;;;;;;23.15;58.50;99968.91;5279062;33;33510;-76
2022/10/01 12:48:05;;;;;;;;;;;;;;;22.86;59.57;99973.53;5296193;33;33890;-75
2022/10/01 12:51:19;;;;;;;;;;;;;;;22.80;59.32;99975.00;5267410;33;32093;-85
2022/10/01 12:54:31;;;;;;;;;;;;;;;22.81;58.94;99974.00;5293176;33;33563;-76
2022/10/01 12:57:36;;;;;;;;;;;;;;;22.51;60.24;99969.75;5290633;33;33655;-85
2022/10/01 13:00:41;;;;;;;;;;;;;;;22.30;60.85;99953.91;5269895;33;34042;-86
2022/10/01 13:03:49;;;;;;;;;;;;;;;21.59;63.15;99956.09;5295673;33;47752;-74
2022/10/01 13:06:50;;;;;;;;;;;;;;;23.05;57.61;99944.00;5278623;33;33252;-74
2022/10/01 13:10:01;;;;;;;;;;;;;;;22.41;60.21;99926.97;5275922;33;33714;-75
2022/10/01 13:13:11;;;;;;;;;;;;;;;24.45;53.44;99920.03;5249304;33;1050039;-85
2022/10/01 13:16:28;;;;;;;;;;;;;;;26.42;47.87;99907.50;5266191;33;44584;-75
2022/10/01 13:19:33;;;;;;;;;;;;;;;28.41;42.40;99892.22;5297970;33;33915;-75
2022/10/01 13:22:35;;;;;;;;;;;;;;;30.96;36.99;99891.31;5273464;33;33449;-87
2022/10/01 13:25:49;;;;;;;;;;;;;;;31.05;35.71;99892.00;5294845;33;34483;-75
2022/10/01 13:28:51;;;;;;;;;;;;;;;29.48;39.37;99897.00;5278206;33;35834;-75
2022/10/01 13:31:56;;;;;;;;;;;;;;;27.14;43.17;99895.72;5288432;32;35533;-75
2022/10/01 13:34:58;;;;;;;;;;;;;;;30.70;36.48;99873.91;5294442;33;34059;-85
2022/10/01 13:38:00;;;;;;;;;;;;;;;28.11;41.44;99880.53;5282655;33;33768;-85
2022/10/01 13:41:03;;;;;;;;;;;;;;;27.43;43.28;99890.41;5284550;33;33680;-85
2022/10/01 13:44:10;;;;;;;;;;;;;;;26.61;45.29;99879.28;5266109;33;34563;-84
2022/10/01 13:47:12;;;;;;;;;;;;;;;24.59;50.85;99873.75;5297031;33;44664;-86
2022/10/01 13:50:23;;;;;;;;;;;;;;;23.87;54.24;99869.66;5268827;33;34020;-85
2022/10/01 13:53:25;;;;;;;;;;;;;;;25.00;51.95;99865.81;5280173;32;33328;-85
2022/10/01 13:56:28;;;;;;;;;;;;;;;24.37;54.87;99863.59;5284128;33;33908;-85
2022/10/01 13:59:36;;;;;;;;;;;;;;;23.88;57.79;99868.66;5289644;33;33685;-75
2022/10/01 14:02:39;;;;;;;;;;;;;;;22.53;61.54;99860.66;5295665;33;34521;-82
2022/10/01 14:05:41;;;;;;;;;;;;;;;21.68;67.69;99847.44;5273329;33;46006;-83
2022/10/01 14:08:46;;;;;;;;;;;;;;;22.92;64.10;99860.44;5276126;33;33265;-84
2022/10/01 14:18:43;;;;;;;;;;;;;;;23.05;64.30;99870.78;5285634;33;43946;-85
2022/10/01 14:22:18;;;;;;;;;;;;;;;21.76;66.11;99874.28;5268133;33;35161;-75
2022/10/01 14:25:38;;;;;;;;;;;;;;;22.14;67.19;99865.34;5246299;33;44866;-74
2022/10/01 14:28:56;;;;;;;;;;;;;;;21.59;66.66;99871.37;5292909;33;33687;-84
2022/10/01 14:32:01;;;;;;;;;;;;;;;21.71;66.99;99873.91;5282204;33;34200;-84
2022/10/01 14:35:06;;;;;;;;;;;;;;;21.28;69.19;99883.19;5293249;33;34152;-76
2022/10/01 14:38:17;;;;;;;;;;;;;;;20.82;71.34;99868.66;5269003;33;34588;-76
2022/10/01 14:41:20;;;;;;;;;;;;;;;21.20;71.70;99875.03;5266785;33;45282;-84
2022/10/01 14:44:25;;;;;;;;;;;;;;;20.68;70.38;99869.91;5271231;33;34140;-85
2022/10/01 14:47:33;;;;;;;;;;;;;;;20.61;70.37;99868.75;5278976;33;33926;-84
2022/10/01 14:50:36;;;;;;;;;;;;;;;21.04;67.87;99857.69;5300858;33;33890;-86
2022/10/01 14:53:39;;;;;;;;;;;;;;;21.56;65.43;99855.59;5258262;33;33723;-83
2022/10/01 14:56:41;;;;;;;;;;;;;;;20.87;68.05;99852.22;5275108;33;44400;-83
2022/10/01 14:59:44;;;;;;;;;;;;;;;20.58;69.82;99849.50;5291370;33;32783;-84
2022/10/01 15:02:48;;;;;;;;;;;;;;;19.63;73.49;99844.41;5265751;33;33387;-80
2022/10/01 15:05:50;;;;;;;;;;;;;;;20.31;70.54;99850.09;5296495;33;34154;-75
2022/10/01 15:08:53;;;;;;;;;;;;;;;20.34;70.62;99855.97;5265485;33;34629;-86
2022/10/01 15:11:55;;;;;;;;;;;;;;;20.30;71.53;99849.25;5278871;33;33564;-75
2022/10/01 15:14:57;;;;;;;;;;;;;;;19.63;73.42;99863.06;5294567;32;33794;-85
2022/10/01 15:18:02;;;;;;;;;;;;;;;19.54;74.39;99863.81;5286295;32;33720;-84
2022/10/01 15:21:05;;;;;;;;;;;;;;;19.16;75.43;99871.37;5297354;33;32575;-84
2022/10/01 15:24:12;;;;;;;;;;;;;;;19.75;73.34;99870.03;5269681;33;33822;-80
2022/10/01 15:27:15;;;;;;;;;;;;;;;19.68;72.00;99875.03;5282707;33;45040;-83
2022/10/01 15:30:17;;;;;;;;;;;;;;;18.55;76.53;99894.16;5269244;33;33960;-84
2022/10/01 15:33:25;;;;;;;;;;;;;;;19.30;74.42;99888.88;5296766;33;33516;-85
2022/10/01 15:36:27;;;;;;;;;;;;;;;18.99;74.12;99897.69;5273714;33;34600;-76
2022/10/01 15:39:32;;;;;;;;;;;;;;;18.77;75.73;99898.62;5294095;33;34581;-75
2022/10/01 15:42:34;;;;;;;;;;;;;;;18.66;75.29;99899.44;5292036;33;34617;-75
2022/10/01 15:45:36;;;;;;;;;;;;;;;19.48;72.42;99891.84;5280948;33;33857;-75
2022/10/01 15:48:38;;;;;;;;;;;;;;;18.82;74.69;99902.59;5292160;33;34256;-74
2022/10/01 15:51:44;;;;;;;;;;;;;;;19.39;73.12;99895.28;5280969;33;33687;-75
2022/10/01 15:54:47;;;;;;;;;;;;;;;18.38;75.78;99896.31;5289460;33;45113;-74
2022/10/01 15:57:50;;;;;;;;;;;;;;;18.69;76.04;99899.25;5289947;33;33819;-85
2022/10/01 16:00:56;;;;;;;;;;;;;;;18.61;75.03;99899.81;5282095;33;33395;-74
2022/10/01 16:04:05;;;;;;;;;;;;;;;18.75;75.84;99904.06;5297818;33;33839;-84
2022/10/01 16:07:15;;;;;;;;;;;;;;;19.29;72.25;99908.50;5278026;33;33764;-83
2022/10/01 16:10:34;;;;;;;;;;;;;;;18.37;73.60;99907.94;5261669;33;45139;-84